Time;durP1;ratioP1;P1;durP2;ratioP2;P2;SDS_P1;SDS_P2;PMS_P1;PMS_P2;Temp;Humidity;BMP_temperature;BMP_pressure;BME280_temperature;BME280_humidity;BME280_pressure;Samples;Min_cycle;Max_cycle;Signal;HPM_P1;HPM_P2
2021/07/13 00:00:56;;;;;;;14.35;8.27;;;20.10;99.90;;;;;;5013944;28;20038;-75
2021/07/13 00:03:22;;;;;;;13.93;8.10;;;20.10;99.90;;;;;;5029445;28;20116;-74
2021/07/13 00:05:48;;;;;;;13.38;7.57;;;20.10;99.90;;;;;;5012804;28;20121;-76
2021/07/13 00:08:14;;;;;;;15.02;8.35;;;20.00;99.90;;;;;;5014153;28;20141;-73
2021/07/13 00:10:42;;;;;;;15.60;7.75;;;20.00;99.90;;;;;;5013645;28;20546;-73
2021/07/13 00:13:09;;;;;;;9.85;6.85;;;19.90;99.90;;;;;;5029524;28;20134;-75
2021/07/13 00:15:41;;;;;;;10.60;7.25;;;19.80;99.90;;;;;;5013647;28;20088;-73
2021/07/13 00:18:08;;;;;;;10.48;6.97;;;19.80;99.90;;;;;;5014028;28;20034;-73
2021/07/13 00:20:34;;;;;;;15.50;7.85;;;19.70;99.90;;;;;;5013724;28;20057;-75
2021/07/13 00:23:00;;;;;;;14.10;8.85;;;19.70;99.90;;;;;;5012682;28;20104;-74
2021/07/13 00:25:28;;;;;;;12.13;7.57;;;19.70;99.90;;;;;;5012254;28;20409;-74
2021/07/13 00:27:55;;;;;;;17.30;8.13;;;19.70;99.90;;;;;;5013805;28;20029;-75
2021/07/13 00:30:23;;;;;;;15.35;9.15;;;19.70;99.90;;;;;;5012277;28;20092;-73
2021/07/13 00:32:50;;;;;;;13.40;8.43;;;19.70;99.90;;;;;;5013400;28;20479;-74
2021/07/13 00:35:17;;;;;;;14.18;8.63;;;19.70;99.90;;;;;;5013416;28;20042;-74
2021/07/13 00:37:43;;;;;;;15.40;9.23;;;19.70;99.90;;;;;;5013436;28;20037;-74
2021/07/13 00:40:13;;;;;;;15.90;9.73;;;19.70;99.90;;;;;;5013383;28;20044;-74
2021/07/13 00:42:40;;;;;;;13.20;8.45;;;19.60;99.90;;;;;;5013301;28;20489;-74
2021/07/13 00:45:07;;;;;;;15.70;9.25;;;19.70;99.90;;;;;;5012075;28;20065;-74
2021/07/13 00:47:33;;;;;;;13.35;8.02;;;19.70;99.90;;;;;;5012030;28;20084;-73
2021/07/13 00:50:00;;;;;;;13.93;7.82;;;19.70;99.90;;;;;;5012163;28;20479;-74
2021/07/13 00:52:27;;;;;;;14.65;8.02;;;19.60;99.90;;;;;;4995510;28;20026;-73
2021/07/13 00:54:54;;;;;;;15.10;7.47;;;19.60;99.90;;;;;;5013164;28;20164;-73
2021/07/13 00:57:20;;;;;;;12.30;6.97;;;19.60;99.90;;;;;;5012038;28;20029;-73
2021/07/13 00:59:47;;;;;;;11.43;7.57;;;19.60;99.90;;;;;;5013104;28;20064;-75
2021/07/13 01:02:16;;;;;;;12.32;7.68;;;19.60;99.90;;;;;;5013094;28;20101;-73
2021/07/13 01:04:58;;;;;;;15.23;8.68;;;19.60;99.90;;;;;;5011893;28;20120;-75
2021/07/13 01:08:07;;;;;;;15.07;7.50;;;19.60;99.90;;;;;;5011130;28;20034;-73
2021/07/13 01:10:45;;;;;;;10.45;7.85;;;19.60;99.90;;;;;;5012657;28;20088;-73
2021/07/13 01:13:30;;;;;;;13.82;8.43;;;19.60;99.90;;;;;;5012829;28;20084;-74
2021/07/13 01:16:27;;;;;;;11.80;8.50;;;19.60;99.90;;;;;;5011458;28;20030;-73
2021/07/13 01:19:15;;;;;;;13.73;8.95;;;19.60;99.90;;;;;;5011722;28;20479;-74
2021/07/13 01:21:53;;;;;;;12.88;7.93;;;19.60;99.90;;;;;;5011749;28;20042;-74
2021/07/13 01:24:51;;;;;;;15.63;9.13;;;19.60;99.90;;;;;;5011866;28;20037;-73
2021/07/13 01:28:16;;;;;;;15.10;8.88;;;19.50;99.90;;;;;;5012653;28;20045;-73
2021/07/13 01:30:50;;;;;;;14.52;7.45;;;19.50;99.90;;;;;;5009891;28;20399;-73
2021/07/13 01:33:23;;;;;;;10.85;6.93;;;19.50;99.90;;;;;;5011424;28;20572;-73
2021/07/13 01:36:04;;;;;;;13.13;8.77;;;19.40;99.90;;;;;;4995182;28;20033;-74
2021/07/13 01:38:40;;;;;;;11.38;7.40;;;19.40;99.90;;;;;;5012536;28;20076;-73
2021/07/13 01:41:11;;;;;;;15.15;8.38;;;19.40;99.90;;;;;;5011701;28;20038;-73
2021/07/13 01:43:40;;;;;;;12.63;7.72;;;19.40;99.90;;;;;;5011388;28;20061;-73
2021/07/13 01:46:08;;;;;;;11.18;7.97;;;19.40;99.90;;;;;;5011455;28;20072;-73
2021/07/13 01:48:36;;;;;;;17.52;7.97;;;19.40;99.90;;;;;;5012230;28;20034;-73
2021/07/13 01:51:02;;;;;;;12.50;7.72;;;19.40;99.90;;;;;;5011463;28;20066;-74
2021/07/13 01:53:30;;;;;;;22.00;14.35;;;19.30;99.90;;;;;;5011014;28;20022;-74
2021/07/13 01:55:57;;;;;;;13.52;8.40;;;19.30;99.90;;;;;;5011071;28;20502;-74
2021/07/13 01:58:29;;;;;;;11.10;7.78;;;19.30;99.90;;;;;;5010934;28;20402;-73
2021/07/13 02:01:22;;;;;;;13.52;7.53;;;19.30;99.90;;;;;;5011307;28;20088;-74
2021/07/13 02:03:52;;;;;;;16.67;8.02;;;19.30;99.90;;;;;;5010889;28;20061;-73
2021/07/13 02:06:21;;;;;;;13.77;7.78;;;19.30;99.90;;;;;;5011258;28;20065;-73
2021/07/13 02:08:51;;;;;;;13.32;7.20;;;19.30;99.90;;;;;;5010710;28;20479;-73
2021/07/13 02:11:18;;;;;;;13.88;7.72;;;19.30;99.90;;;;;;5010797;28;20074;-73
2021/07/13 02:13:44;;;;;;;11.13;7.10;;;19.30;99.90;;;;;;4994362;28;20489;-73
2021/07/13 02:16:11;;;;;;;12.05;7.65;;;19.30;99.90;;;;;;5012158;28;20041;-74
2021/07/13 02:18:36;;;;;;;13.85;7.38;;;19.30;99.90;;;;;;5010745;28;20053;-74
2021/07/13 02:21:05;;;;;;;15.20;7.50;;;19.30;99.90;;;;;;5014800;28;20486;-74
2021/07/13 02:23:32;;;;;;;13.18;7.78;;;19.20;99.90;;;;;;5014450;28;20403;-74
2021/07/13 02:26:04;;;;;;;14.13;8.02;;;19.20;99.90;;;;;;5015875;28;20041;-74
2021/07/13 02:28:45;;;;;;;11.70;7.72;;;19.20;99.90;;;;;;5015893;28;20026;-73
2021/07/13 02:31:15;;;;;;;14.48;8.10;;;19.10;99.90;;;;;;4998543;28;20525;-73
2021/07/13 02:34:08;;;;;;;12.18;8.40;;;19.00;99.90;;;;;;5014320;28;20046;-72
2021/07/13 02:36:38;;;;;;;18.40;8.77;;;19.00;99.90;;;;;;5014436;28;20038;-73
2021/07/13 02:39:09;;;;;;;13.77;7.83;;;19.10;99.90;;;;;;5015894;28;20059;-73
2021/07/13 02:41:38;;;;;;;11.07;6.65;;;19.20;99.90;;;;;;5015510;28;20066;-73
2021/07/13 02:44:04;;;;;;;10.50;7.50;;;19.30;99.90;;;;;;5014137;28;20394;-73
2021/07/13 02:46:32;;;;;;;9.55;6.40;;;19.30;99.90;;;;;;5015631;28;20030;-73
2021/07/13 02:48:59;;;;;;;11.98;5.78;;;19.30;99.90;;;;;;5014194;28;20479;-75
2021/07/13 02:51:29;;;;;;;10.05;5.88;;;19.40;99.90;;;;;;5014185;28;20032;-74
2021/07/13 02:53:56;;;;;;;9.93;5.73;;;19.50;99.90;;;;;;5014160;28;20034;-74
2021/07/13 02:56:26;;;;;;;8.43;6.32;;;19.50;99.90;;;;;;5014260;28;20351;-74
2021/07/13 02:59:01;;;;;;;9.25;6.30;;;19.40;99.90;;;;;;5013826;28;20080;-75
2021/07/13 03:01:28;;;;;;;11.20;5.95;;;19.50;99.90;;;;;;5014268;28;20037;-75
2021/07/13 03:03:54;;;;;;;16.02;6.82;;;19.50;99.90;;;;;;5014864;28;20042;-74
2021/07/13 03:06:21;;;;;;;10.55;6.65;;;19.50;99.90;;;;;;5014107;28;20048;-75
2021/07/13 03:08:48;;;;;;;11.35;7.40;;;19.50;99.90;;;;;;5015085;28;20052;-74
2021/07/13 03:11:15;;;;;;;8.40;6.38;;;19.50;99.90;;;;;;5013772;28;20065;-74
2021/07/13 03:13:41;;;;;;;13.52;6.85;;;19.60;99.90;;;;;;5013791;28;20053;-74
2021/07/13 03:16:10;;;;;;;12.48;6.60;;;19.60;99.90;;;;;;4997321;28;20058;-74
2021/07/13 03:18:36;;;;;;;8.90;5.68;;;19.60;99.90;;;;;;5014544;28;20045;-74
2021/07/13 03:21:05;;;;;;;10.32;6.95;;;19.60;99.90;;;;;;5014915;28;20551;-74
2021/07/13 03:23:39;;;;;;;13.07;6.72;;;19.60;99.90;;;;;;5015007;28;20042;-73
2021/07/13 03:26:07;;;;;;;12.88;7.90;;;19.40;99.90;;;;;;5013516;28;20026;-74
2021/07/13 03:28:34;;;;;;;10.00;7.38;;;19.30;99.90;;;;;;5013341;28;20029;-73
2021/07/13 03:31:01;;;;;;;11.70;7.05;;;19.30;99.90;;;;;;5012213;28;20036;-73
2021/07/13 03:33:27;;;;;;;10.70;7.32;;;19.40;99.90;;;;;;4997384;28;20165;-74
2021/07/13 03:35:57;;;;;;;9.88;6.68;;;19.40;99.90;;;;;;5013025;28;20548;-73
2021/07/13 03:38:23;;;;;;;13.30;7.25;;;19.50;99.90;;;;;;5013321;28;20056;-73
2021/07/13 03:40:50;;;;;;;11.88;7.72;;;19.50;99.90;;;;;;5013145;28;20034;-73
2021/07/13 03:43:17;;;;;;;11.38;7.10;;;19.50;99.90;;;;;;5013526;28;20030;-74
2021/07/13 03:45:43;;;;;;;12.82;7.82;;;19.40;99.90;;;;;;5012974;28;20037;-74
2021/07/13 03:48:11;;;;;;;17.92;9.13;;;19.50;99.90;;;;;;5029859;28;20069;-74
2021/07/13 03:50:38;;;;;;;11.43;7.50;;;19.50;99.90;;;;;;5012767;28;20033;-74
2021/07/13 03:53:04;;;;;;;14.68;8.32;;;19.50;99.90;;;;;;5013363;28;20030;-74
2021/07/13 03:55:30;;;;;;;12.07;8.23;;;19.50;99.90;;;;;;5012780;28;20038;-73
2021/07/13 03:57:57;;;;;;;11.35;7.97;;;19.60;99.90;;;;;;5014039;28;20108;-74
2021/07/13 04:00:27;;;;;;;9.70;7.40;;;19.60;99.90;;;;;;5014141;28;20030;-73
2021/07/13 04:02:53;;;;;;;11.23;8.47;;;19.60;99.90;;;;;;5013849;28;20545;-74
2021/07/13 04:05:19;;;;;;;11.70;7.57;;;19.40;99.90;;;;;;5014122;28;20280;-74
2021/07/13 04:07:45;;;;;;;12.00;8.68;;;19.40;99.90;;;;;;5013709;28;20364;-75
2021/07/13 04:10:14;;;;;;;13.02;7.47;;;19.40;99.90;;;;;;5014066;28;20045;-73
2021/07/13 04:12:41;;;;;;;14.00;8.27;;;19.40;99.90;;;;;;5013571;28;20042;-74
2021/07/13 04:15:09;;;;;;;12.80;7.25;;;19.40;99.90;;;;;;5012625;28;20061;-75
2021/07/13 04:17:34;;;;;;;10.98;7.07;;;19.40;99.90;;;;;;5014050;28;20026;-74
2021/07/13 04:20:00;;;;;;;9.90;6.53;;;19.40;99.90;;;;;;5013519;28;20049;-74
2021/07/13 04:22:26;;;;;;;9.38;5.43;;;19.50;99.90;;;;;;5013687;28;20065;-74
2021/07/13 04:24:52;;;;;;;9.63;6.65;;;19.60;99.90;;;;;;5013864;28;20129;-73
2021/07/13 04:27:17;;;;;;;12.25;6.00;;;19.60;99.90;;;;;;5013569;28;20112;-73
2021/07/13 04:29:44;;;;;;;10.70;5.68;;;19.60;99.90;;;;;;5013175;28;20028;-73
2021/07/13 04:32:10;;;;;;;11.80;5.60;;;19.60;99.90;;;;;;5012582;28;20033;-74
2021/07/13 04:34:36;;;;;;;11.20;5.43;;;19.60;99.90;;;;;;5013293;28;20513;-74
2021/07/13 04:37:02;;;;;;;9.20;5.43;;;19.60;99.90;;;;;;5013483;28;20037;-74
2021/07/13 04:39:28;;;;;;;11.75;6.38;;;19.60;99.90;;;;;;5028571;28;20152;-74
2021/07/13 04:41:54;;;;;;;10.02;6.47;;;19.70;99.90;;;;;;5013309;28;20069;-73
2021/07/13 04:44:20;;;;;;;11.82;7.00;;;19.60;99.90;;;;;;5013473;28;20033;-74
2021/07/13 04:46:46;;;;;;;12.05;8.10;;;19.50;99.90;;;;;;5013195;28;20026;-74
2021/07/13 04:49:12;;;;;;;11.48;8.18;;;19.50;99.90;;;;;;5013353;28;20041;-74
2021/07/13 04:51:38;;;;;;;10.55;7.65;;;19.50;99.90;;;;;;5013119;28;20053;-75
2021/07/13 04:54:05;;;;;;;11.50;8.05;;;19.40;99.90;;;;;;5012775;28;20042;-73
2021/07/13 04:56:31;;;;;;;16.90;9.65;;;19.50;99.90;;;;;;5013225;28;20037;-74
2021/07/13 04:58:57;;;;;;;14.20;8.38;;;19.50;99.90;;;;;;5012001;28;20109;-73
2021/07/13 05:01:23;;;;;;;14.93;9.07;;;19.60;99.90;;;;;;5012723;28;20038;-74
2021/07/13 05:03:49;;;;;;;12.80;8.65;;;19.60;99.90;;;;;;5013018;28;20037;-75
2021/07/13 05:06:15;;;;;;;14.52;8.95;;;19.60;99.90;;;;;;5011642;28;20117;-74
2021/07/13 05:08:42;;;;;;;13.80;8.10;;;19.60;99.90;;;;;;5013148;28;20038;-74
2021/07/13 05:11:08;;;;;;;14.00;9.18;;;19.50;99.90;;;;;;5012588;28;20104;-74
2021/07/13 05:13:34;;;;;;;15.52;9.68;;;19.40;99.90;;;;;;5011421;28;20038;-74
2021/07/13 05:16:00;;;;;;;14.15;8.90;;;19.40;99.90;;;;;;5011240;28;20475;-73
2021/07/13 05:18:26;;;;;;;14.10;9.40;;;19.50;99.90;;;;;;5011514;28;20037;-73
2021/07/13 05:21:00;;;;;;;14.77;9.57;;;19.40;99.90;;;;;;5012761;28;20083;-73
2021/07/13 05:23:26;;;;;;;18.42;11.30;;;19.50;99.90;;;;;;5011856;28;20045;-73
2021/07/13 05:25:52;;;;;;;16.15;11.35;;;19.50;99.90;;;;;;5027566;28;20037;-73
2021/07/13 05:28:18;;;;;;;19.67;12.90;;;19.60;99.90;;;;;;5012598;28;20410;-73
2021/07/13 05:30:45;;;;;;;18.17;12.32;;;19.70;99.90;;;;;;5010901;28;20036;-73
2021/07/13 05:33:12;;;;;;;19.73;12.35;;;19.70;99.90;;;;;;5012781;28;20049;-74
2021/07/13 05:35:38;;;;;;;19.70;12.68;;;19.70;99.90;;;;;;5012556;28;20030;-73
2021/07/13 05:38:05;;;;;;;17.65;12.10;;;19.80;99.90;;;;;;5012336;28;20434;-73
2021/07/13 05:40:31;;;;;;;15.88;11.13;;;19.80;99.90;;;;;;5012332;28;20530;-73
2021/07/13 05:42:57;;;;;;;18.02;12.88;;;19.90;99.90;;;;;;5012346;28;20038;-74
2021/07/13 05:45:24;;;;;;;16.73;13.07;;;20.10;99.90;;;;;;5011021;28;20394;-73
2021/07/13 05:47:51;;;;;;;19.58;13.25;;;20.20;99.90;;;;;;5010992;28;20064;-74
2021/07/13 05:50:17;;;;;;;17.25;12.70;;;20.20;99.90;;;;;;5011094;28;20042;-72
2021/07/13 05:52:43;;;;;;;16.58;12.23;;;20.30;99.90;;;;;;5012582;28;20463;-72
2021/07/13 05:55:09;;;;;;;16.15;11.65;;;20.30;99.90;;;;;;5014845;28;20442;-72
2021/07/13 05:57:35;;;;;;;15.98;10.95;;;20.20;99.90;;;;;;5016610;28;20034;-72
2021/07/13 06:00:05;;;;;;;14.15;11.15;;;20.20;99.90;;;;;;5016357;28;20100;-73
2021/07/13 06:02:31;;;;;;;16.13;11.60;;;20.20;99.90;;;;;;5016900;28;20042;-73
2021/07/13 06:04:57;;;;;;;15.95;11.65;;;20.20;99.90;;;;;;5016112;28;20044;-73
2021/07/13 06:07:22;;;;;;;16.73;12.52;;;20.30;99.90;;;;;;5016488;28;20033;-72
2021/07/13 06:09:48;;;;;;;15.50;11.98;;;20.40;99.90;;;;;;5016074;28;20109;-72
2021/07/13 06:12:14;;;;;;;17.13;12.10;;;20.40;99.90;;;;;;5015958;28;20042;-72
2021/07/13 06:14:40;;;;;;;19.45;12.20;;;20.40;99.90;;;;;;5015930;28;20471;-74
2021/07/13 06:17:07;;;;;;;19.08;11.48;;;20.40;99.90;;;;;;5014788;28;20550;-72
2021/07/13 06:19:34;;;;;;;14.25;9.80;;;20.50;99.90;;;;;;5015010;28;20049;-72
2021/07/13 06:22:01;;;;;;;11.05;9.02;;;20.50;99.90;;;;;;5014839;28;20038;-74
2021/07/13 06:24:26;;;;;;;13.18;9.23;;;20.40;99.90;;;;;;5016387;28;20037;-72
2021/07/13 06:26:52;;;;;;;12.95;8.68;;;20.40;99.90;;;;;;5014650;28;20109;-74
2021/07/13 06:29:18;;;;;;;15.32;8.88;;;20.40;99.90;;;;;;5014644;28;20054;-73
2021/07/13 06:31:44;;;;;;;12.73;8.65;;;20.40;99.90;;;;;;5016032;28;20392;-74
2021/07/13 06:34:11;;;;;;;10.98;7.68;;;20.40;99.90;;;;;;5015695;28;20034;-74
2021/07/13 06:36:38;;;;;;;10.65;7.90;;;20.40;99.90;;;;;;5015919;28;20038;-74
2021/07/13 06:39:04;;;;;;;9.82;7.63;;;20.40;99.90;;;;;;5014199;28;20029;-75
2021/07/13 06:41:30;;;;;;;10.30;8.50;;;20.40;99.90;;;;;;5015469;28;20037;-74
2021/07/13 06:43:56;;;;;;;13.55;8.23;;;20.50;99.90;;;;;;5015688;28;20034;-75
2021/07/13 06:46:21;;;;;;;10.65;7.70;;;20.60;99.90;;;;;;5015477;28;20505;-75
2021/07/13 06:48:47;;;;;;;11.40;7.68;;;20.60;99.90;;;;;;5014707;28;20034;-74
2021/07/13 06:51:14;;;;;;;11.25;7.82;;;20.70;99.90;;;;;;5015879;28;20080;-74
2021/07/13 06:53:39;;;;;;;10.63;8.02;;;20.60;99.90;;;;;;5015405;28;20045;-74
2021/07/13 06:56:06;;;;;;;12.55;7.93;;;20.50;99.90;;;;;;5015258;28;20025;-74
2021/07/13 06:58:32;;;;;;;14.85;9.30;;;20.50;99.90;;;;;;5015488;28;20037;-74
2021/07/13 07:00:58;;;;;;;13.27;8.52;;;20.50;99.90;;;;;;5014931;28;20038;-73
2021/07/13 07:03:23;;;;;;;12.55;7.95;;;20.50;99.90;;;;;;5013969;28;20032;-74
2021/07/13 07:05:49;;;;;;;12.13;9.43;;;20.40;99.90;;;;;;5013796;28;20560;-74
2021/07/13 07:08:15;;;;;;;13.75;10.13;;;20.40;99.90;;;;;;5015133;28;20034;-74
2021/07/13 07:10:41;;;;;;;14.05;9.77;;;20.30;99.90;;;;;;5013897;28;20033;-73
2021/07/13 07:13:06;;;;;;;15.52;10.10;;;20.30;99.90;;;;;;5013515;28;20050;-74
2021/07/13 07:15:32;;;;;;;12.35;8.45;;;20.30;99.90;;;;;;5014777;28;20037;-73
2021/07/13 07:17:58;;;;;;;12.85;9.75;;;20.30;99.90;;;;;;5014789;28;20030;-73
2021/07/13 07:20:29;;;;;;;13.40;9.98;;;20.30;99.90;;;;;;5014039;28;20033;-73
2021/07/13 07:22:56;;;;;;;13.20;10.02;;;20.40;99.90;;;;;;5013455;28;20044;-73
2021/07/13 07:25:22;;;;;;;15.25;9.30;;;20.40;99.90;;;;;;5013436;28;20116;-72
2021/07/13 07:27:50;;;;;;;14.40;9.82;;;20.40;99.90;;;;;;5013734;28;20451;-73
2021/07/13 07:30:17;;;;;;;15.00;9.98;;;20.40;99.90;;;;;;5014509;28;20037;-73
2021/07/13 07:32:45;;;;;;;14.43;9.98;;;20.40;99.90;;;;;;5014932;28;20025;-72
2021/07/13 07:35:11;;;;;;;13.85;9.25;;;20.30;99.90;;;;;;5013058;28;20367;-72
2021/07/13 07:37:38;;;;;;;17.23;9.32;;;20.30;99.90;;;;;;5014801;28;20434;-72
2021/07/13 07:40:07;;;;;;;13.55;9.38;;;20.30;99.90;;;;;;5014345;28;20403;-73
2021/07/13 07:42:33;;;;;;;10.80;8.50;;;20.30;99.90;;;;;;5014610;28;20029;-72
2021/07/13 07:45:00;;;;;;;14.40;9.63;;;20.40;99.90;;;;;;5014642;28;20471;-72
2021/07/13 07:47:26;;;;;;;13.52;9.95;;;20.30;99.90;;;;;;5013016;28;20030;-72
2021/07/13 07:49:52;;;;;;;12.52;9.23;;;20.40;99.90;;;;;;5013104;28;20058;-72
2021/07/13 07:52:19;;;;;;;12.43;9.02;;;20.40;99.90;;;;;;5014254;28;20096;-72
2021/07/13 07:54:45;;;;;;;13.75;9.50;;;20.50;99.90;;;;;;5014026;28;20030;-72
2021/07/13 07:57:11;;;;;;;14.57;9.82;;;20.50;99.90;;;;;;5012992;28;20506;-72
2021/07/13 07:59:36;;;;;;;11.48;8.88;;;20.50;99.90;;;;;;5014159;28;20537;-72
2021/07/13 08:02:03;;;;;;;13.32;9.65;;;20.50;99.90;;;;;;5014108;28;20054;-72
2021/07/13 08:04:28;;;;;;;11.88;9.32;;;20.50;99.90;;;;;;5014101;28;20030;-72
2021/07/13 08:06:54;;;;;;;14.35;9.57;;;20.40;99.90;;;;;;5013697;28;20476;-72
2021/07/13 08:09:20;;;;;;;13.77;9.43;;;20.40;99.90;;;;;;5013926;28;20057;-72
2021/07/13 08:11:46;;;;;;;15.38;10.18;;;20.40;99.90;;;;;;5013582;28;20510;-72
2021/07/13 08:14:12;;;;;;;13.07;9.82;;;20.40;99.90;;;;;;5012620;28;20049;-72
2021/07/13 08:16:39;;;;;;;14.50;9.95;;;20.40;99.90;;;;;;5013121;28;20034;-73
2021/07/13 08:19:05;;;;;;;15.98;10.60;;;20.30;99.90;;;;;;5012374;28;20038;-72
2021/07/13 08:21:33;;;;;;;14.60;9.60;;;20.30;99.90;;;;;;5013600;28;20046;-72
2021/07/13 08:23:59;;;;;;;16.02;9.90;;;20.30;99.90;;;;;;5012495;28;20084;-72
2021/07/13 08:26:26;;;;;;;13.68;9.55;;;20.30;99.90;;;;;;5013704;28;20415;-72
2021/07/13 08:28:53;;;;;;;13.50;9.90;;;20.30;99.90;;;;;;5012399;28;20042;-72
2021/07/13 08:31:20;;;;;;;12.18;8.75;;;20.30;99.90;;;;;;5012008;28;20040;-71
2021/07/13 08:33:46;;;;;;;19.17;9.38;;;20.50;99.90;;;;;;5012596;28;20037;-72
2021/07/13 08:36:12;;;;;;;13.27;8.80;;;20.50;99.90;;;;;;5011934;28;20041;-71
2021/07/13 08:38:38;;;;;;;13.85;8.65;;;20.60;99.90;;;;;;5013711;28;20550;-71
2021/07/13 08:41:04;;;;;;;12.23;9.25;;;20.70;99.90;;;;;;5012364;28;20141;-72
2021/07/13 08:43:30;;;;;;;13.50;9.32;;;20.70;99.90;;;;;;5013370;28;20054;-72
2021/07/13 08:45:56;;;;;;;13.95;10.05;;;20.70;99.90;;;;;;5012082;28;20030;-72
2021/07/13 08:48:26;;;;;;;12.50;8.40;;;20.70;99.90;;;;;;5012090;28;20040;-73
2021/07/13 08:50:56;;;;;;;13.43;8.57;;;20.70;99.90;;;;;;5013191;28;20038;-71
2021/07/13 08:53:22;;;;;;;11.07;8.45;;;20.70;99.90;;;;;;5013346;28;20475;-72
2021/07/13 08:55:48;;;;;;;13.25;9.65;;;20.60;99.90;;;;;;5013053;28;20037;-72
2021/07/13 08:58:15;;;;;;;15.07;10.05;;;20.60;99.90;;;;;;5011946;28;20029;-71
2021/07/13 09:00:42;;;;;;;13.70;8.38;;;20.50;99.90;;;;;;5013389;28;20109;-72
2021/07/13 09:03:17;;;;;;;13.15;8.80;;;20.50;99.90;;;;;;5011935;28;20034;-73
2021/07/13 09:05:51;;;;;;;11.27;8.73;;;20.40;99.90;;;;;;5013250;28;20069;-71
2021/07/13 09:08:30;;;;;;;11.40;8.07;;;20.30;99.90;;;;;;5011976;28;20422;-72
2021/07/13 09:11:03;;;;;;;11.57;8.40;;;20.30;99.90;;;;;;5011445;28;20434;-71
2021/07/13 09:13:47;;;;;;;16.15;8.90;;;20.30;99.90;;;;;;5013110;28;20026;-71
2021/07/13 09:16:23;;;;;;;11.45;8.30;;;20.30;99.90;;;;;;5011390;28;20038;-72
2021/07/13 09:18:51;;;;;;;12.70;9.40;;;20.40;99.90;;;;;;5012939;28;20025;-73
2021/07/13 09:21:32;;;;;;;15.27;9.90;;;20.30;99.90;;;;;;5011451;28;20033;-72
2021/07/13 09:24:16;;;;;;;12.82;8.80;;;20.20;99.90;;;;;;5012640;28;20076;-72
2021/07/13 09:26:48;;;;;;;15.52;9.55;;;20.30;99.90;;;;;;5012690;28;20046;-72
2021/07/13 09:29:38;;;;;;;15.32;9.57;;;20.40;99.90;;;;;;5011602;28;20054;-72
2021/07/13 09:32:33;;;;;;;13.68;9.68;;;20.30;99.90;;;;;;5012366;28;20442;-72
2021/07/13 09:35:05;;;;;;;13.38;9.13;;;20.30;99.90;;;;;;5010902;28;20041;-72
2021/07/13 09:37:35;;;;;;;10.55;8.43;;;20.30;99.90;;;;;;5012477;28;20041;-72
2021/07/13 09:40:11;;;;;;;13.77;8.23;;;20.20;99.90;;;;;;4994863;28;20029;-73
2021/07/13 09:42:49;;;;;;;11.77;9.18;;;20.20;99.90;;;;;;5012413;28;20533;-72
2021/07/13 09:45:24;;;;;;;12.30;8.77;;;20.20;99.90;;;;;;4994886;28;20497;-73
2021/07/13 09:48:12;;;;;;;14.40;9.10;;;20.20;99.90;;;;;;5012359;28;20030;-72
2021/07/13 09:50:51;;;;;;;12.70;9.35;;;20.10;99.90;;;;;;4996677;28;20026;-72
2021/07/13 09:53:20;;;;;;;14.52;9.18;;;20.30;99.90;;;;;;5012198;28;20034;-73
2021/07/13 09:55:48;;;;;;;11.65;8.48;;;20.30;99.90;;;;;;5011050;28;20033;-72
2021/07/13 09:58:26;;;;;;;14.88;9.52;;;20.40;99.90;;;;;;5011061;28;20056;-72
2021/07/13 10:00:59;;;;;;;11.07;8.65;;;20.40;99.90;;;;;;5012234;28;20138;-72
2021/07/13 10:03:27;;;;;;;12.43;8.60;;;20.50;99.90;;;;;;5012326;28;20031;-73
2021/07/13 10:05:54;;;;;;;12.68;8.73;;;20.50;99.90;;;;;;5011071;28;20034;-72
2021/07/13 10:08:23;;;;;;;13.70;9.13;;;20.40;99.90;;;;;;5010906;28;20038;-72
2021/07/13 10:10:50;;;;;;;12.43;9.05;;;20.40;99.90;;;;;;5012056;28;20037;-72
2021/07/13 10:13:17;;;;;;;13.85;9.73;;;20.40;99.90;;;;;;5011061;28;20034;-72
2021/07/13 10:15:44;;;;;;;14.10;9.02;;;20.40;99.90;;;;;;5012056;28;20493;-73
2021/07/13 10:18:11;;;;;;;12.13;9.52;;;20.30;99.90;;;;;;5010831;28;20040;-73
2021/07/13 10:20:39;;;;;;;14.48;9.55;;;20.30;99.90;;;;;;5011169;28;20030;-72
2021/07/13 10:23:09;;;;;;;12.38;9.57;;;20.40;99.90;;;;;;5010655;28;20026;-73
2021/07/13 10:25:44;;;;;;;11.95;8.50;;;20.50;99.90;;;;;;5012333;28;20087;-73
2021/07/13 10:28:12;;;;;;;15.57;8.57;;;20.60;99.90;;;;;;5010750;28;20506;-73
2021/07/13 10:30:42;;;;;;;12.88;8.93;;;20.60;99.90;;;;;;5011100;28;20049;-72
2021/07/13 10:33:30;;;;;;;11.35;8.30;;;20.60;99.90;;;;;;5012116;28;20030;-73
2021/07/13 10:36:17;;;;;;;12.30;8.93;;;20.50;99.90;;;;;;5011741;28;20577;-73
2021/07/13 10:38:42;;;;;;;16.00;7.97;;;20.50;99.90;;;;;;5011884;28;20129;-73
2021/07/13 10:41:12;;;;;;;12.55;9.15;;;20.30;99.90;;;;;;5012898;28;20030;-73
2021/07/13 10:43:47;;;;;;;18.30;10.37;;;20.30;99.90;;;;;;5014506;28;20121;-73
2021/07/13 10:46:13;;;;;;;5.18;1.75;;;20.10;99.90;;;;;;5014548;28;20041;-71
2021/07/13 10:48:39;;;;;;;4.97;0.52;;;19.10;99.90;;;;;;5030713;28;20034;-72
2021/07/13 10:51:08;;;;;;;3.38;1.30;;;17.80;99.90;;;;;;5014333;28;20029;-72
2021/07/13 10:53:42;;;;;;;2.58;0.63;;;17.10;99.90;;;;;;5014211;28;20026;-71
2021/07/13 10:56:17;;;;;;;1.35;0.32;;;16.70;99.90;;;;;;5015225;28;20065;-71
2021/07/13 10:58:53;;;;;;;1.13;0.65;;;16.50;99.90;;;;;;5014052;28;20069;-72
2021/07/13 11:01:43;;;;;;;1.60;0.50;;;16.40;99.90;;;;;;5015092;28;20022;-71
2021/07/13 11:04:12;;;;;;;0.93;0.40;;;16.20;99.90;;;;;;5013841;28;20034;-71
2021/07/13 11:06:48;;;;;;;1.88;0.70;;;16.10;99.90;;;;;;5013902;28;20026;-72
2021/07/13 11:09:27;;;;;;;4.70;0.57;;;16.00;99.90;;;;;;5015042;28;20046;-72
2021/07/13 11:12:19;;;;;;;1.88;0.60;;;15.90;99.90;;;;;;5013808;28;20042;-71
2021/07/13 11:14:50;;;;;;;1.90;0.57;;;15.90;99.90;;;;;;5014917;28;20187;-71
2021/07/13 11:17:22;;;;;;;3.97;0.65;;;15.80;99.90;;;;;;5030010;28;20058;-71
2021/07/13 11:19:48;;;;;;;1.08;0.40;;;15.80;99.90;;;;;;5013789;28;20033;-72
2021/07/13 11:22:19;;;;;;;0.60;0.43;;;15.80;99.90;;;;;;5013523;28;20033;-71
2021/07/13 11:24:44;;;;;;;2.45;0.70;;;15.80;99.90;;;;;;5015052;28;20072;-71
2021/07/13 11:27:10;;;;;;;1.25;0.52;;;15.80;99.90;;;;;;5013526;28;20069;-72
2021/07/13 11:29:36;;;;;;;1.10;0.70;;;15.80;99.90;;;;;;5014558;28;20309;-72
2021/07/13 11:32:04;;;;;;;1.38;0.60;;;15.80;99.90;;;;;;4996978;28;20088;-71
2021/07/13 11:34:36;;;;;;;17.75;1.92;;;15.80;99.90;;;;;;5012986;28;20387;-71
2021/07/13 11:37:04;;;;;;;4.75;0.70;;;15.90;99.90;;;;;;5013307;28;20095;-71
2021/07/13 11:39:33;;;;;;;2.13;0.55;;;16.00;99.90;;;;;;5013275;28;20033;-72
2021/07/13 11:42:08;;;;;;;3.22;0.65;;;16.10;99.90;;;;;;5014713;28;20034;-71
2021/07/13 11:44:38;;;;;;;1.52;0.40;;;16.10;99.90;;;;;;5014346;28;20360;-71
2021/07/13 11:47:12;;;;;;;0.95;0.50;;;16.20;99.90;;;;;;5013289;28;20029;-71
2021/07/13 11:49:39;;;;;;;0.82;0.50;;;16.20;99.90;;;;;;5013357;28;20042;-71
2021/07/13 11:52:14;;;;;;;1.42;0.32;;;16.30;99.90;;;;;;5013690;28;20026;-70
2021/07/13 11:54:53;;;;;;;1.75;0.50;;;16.40;99.90;;;;;;5013051;28;20037;-71
2021/07/13 11:57:19;;;;;;;1.23;0.70;;;16.40;99.90;;;;;;5013036;28;20038;-71
2021/07/13 11:59:45;;;;;;;0.82;0.40;;;16.60;99.90;;;;;;5014189;28;20497;-70
2021/07/13 12:02:12;;;;;;;0.65;0.40;;;16.60;99.90;;;;;;5012987;28;20042;-71
2021/07/13 12:04:50;;;;;;;1.00;0.57;;;16.70;99.90;;;;;;5013980;28;20026;-71
2021/07/13 12:07:19;;;;;;;0.98;0.40;;;16.70;99.90;;;;;;5014205;28;20041;-71
2021/07/13 12:09:45;;;;;;;1.25;0.50;;;16.80;99.90;;;;;;5012752;28;20036;-71
2021/07/13 12:12:14;;;;;;;1.40;0.60;;;16.80;99.90;;;;;;5013760;28;20409;-71
2021/07/13 12:14:52;;;;;;;0.63;0.52;;;16.80;99.90;;;;;;5012838;28;20613;-71
2021/07/13 12:17:22;;;;;;;0.70;0.32;;;16.80;99.90;;;;;;5012649;28;20030;-71
2021/07/13 12:19:48;;;;;;;1.33;0.50;;;16.80;99.90;;;;;;5012944;28;20026;-72
2021/07/13 12:22:21;;;;;;;0.40;0.20;;;16.90;99.90;;;;;;5012646;28;20095;-72
2021/07/13 12:24:49;;;;;;;1.25;0.50;;;16.90;99.90;;;;;;5013889;28;20080;-72
2021/07/13 12:27:20;;;;;;;0.50;0.40;;;16.90;99.90;;;;;;5013715;28;20057;-71
2021/07/13 12:29:57;;;;;;;2.42;0.40;;;16.90;99.90;;;;;;5013825;28;20096;-71
2021/07/13 12:32:30;;;;;;;0.68;0.30;;;16.90;99.90;;;;;;5013679;28;20049;-71
2021/07/13 12:34:57;;;;;;;0.40;0.38;;;16.90;99.90;;;;;;5013366;28;20030;-70
2021/07/13 12:37:29;;;;;;;3.42;0.40;;;16.90;99.90;;;;;;5013187;28;20037;-71
2021/07/13 12:40:00;;;;;;;0.47;0.28;;;17.00;99.90;;;;;;5013507;28;20021;-71
2021/07/13 12:42:35;;;;;;;0.43;0.43;;;17.00;99.90;;;;;;5013243;28;20048;-70
2021/07/13 12:45:15;;;;;;;2.78;0.60;;;17.20;99.90;;;;;;5013333;28;20467;-70
2021/07/13 12:47:52;;;;;;;5.00;1.75;;;17.30;99.90;;;;;;5012211;28;20062;-70
2021/07/13 12:50:27;;;;;;;0.70;0.40;;;17.30;99.90;;;;;;5012860;28;20503;-71